Time;durP1;ratioP1;P1;durP2;ratioP2;P2;SDS_P1;SDS_P2;PMS_P1;PMS_P2;Temp;Humidity;BMP_temperature;BMP_pressure;BME280_temperature;BME280_humidity;BME280_pressure;Samples;Min_cycle;Max_cycle;Signal;HPM_P1;HPM_P2
2023/05/17 00:00:00;;;;;;;;;;;;;;;;;;4975212;28;20465;-72
2023/05/17 00:02:26;;;;;;;11.05;3.00;;;;;;;;;;4976271;28;19913;-73
2023/05/17 00:04:52;;;;;;;10.05;2.78;;;;;;;;;;4975287;28;20033;-72
2023/05/17 00:07:18;;;;;;;;;;;;;;;;;;4979763;28;20607;-72
2023/05/17 00:09:45;;;;;;;10.48;2.90;;;;;;;;;;4974497;28;20004;-73
2023/05/17 00:12:11;;;;;;;10.45;3.00;;;;;;;;;;4980877;28;20215;-73
2023/05/17 00:14:37;;;;;;;;;;;;;;;;;;4980401;28;20281;-72
2023/05/17 00:17:03;;;;;;;12.90;4.00;;;;;;;;;;4978787;28;20285;-72
2023/05/17 00:19:29;;;;;;;10.98;3.17;;;;;;;;;;4980057;28;20435;-72
2023/05/17 00:21:55;;;;;;;;;;;;;;;;;;4975442;28;20038;-73
2023/05/17 00:24:21;;;;;;;14.10;4.28;;;;;;;;;;4976598;28;20632;-74
2023/05/17 00:26:47;;;;;;;11.57;3.40;;;;;;;;;;4978944;28;20770;-72
2023/05/17 00:29:13;;;;;;;;;;;;;;;;;;4979910;28;20035;-73
2023/05/17 00:31:40;;;;;;;10.75;3.30;;;;;;;;;;4978308;28;19921;-73
2023/05/17 00:34:06;;;;;;;10.90;3.30;;;;;;;;;;4976949;28;20026;-73
2023/05/17 00:36:32;;;;;;;;;;;;;;;;;;4975534;28;20482;-73
2023/05/17 00:38:58;;;;;;;11.38;3.47;;;;;;;;;;4976254;28;19920;-73
2023/05/17 00:41:24;;;;;;;;;;;;;;;;;;4979763;28;20218;-73
2023/05/17 00:43:50;;;;;;;10.25;3.33;;;;;;;;;;4972452;28;20281;-73
2023/05/17 00:46:16;;;;;;;12.38;3.83;;;;;;;;;;4980185;28;20021;-73
2023/05/17 00:48:42;;;;;;;;;;;;;;;;;;4977381;28;20057;-73
2023/05/17 00:51:08;;;;;;;11.27;3.47;;;;;;;;;;4977057;28;20108;-73
2023/05/17 00:53:36;;;;;;;;;;;;;;;;;;4978560;28;20038;-73
2023/05/17 00:56:02;;;;;;;17.17;3.80;;;;;;;;;;4974689;28;19921;-73
2023/05/17 00:58:29;;;;;;;10.15;3.08;;;;;;;;;;4980562;28;20033;-73
2023/05/17 01:00:55;;;;;;;10.30;3.25;;;;;;;;;;4975646;28;20137;-72
2023/05/17 01:03:21;;;;;;;13.40;3.50;;;;;;;;;;4980488;28;20593;-73
2023/05/17 01:05:48;;;;;;;10.93;3.67;;;;;;;;;;4977348;28;20061;-72
2023/05/17 01:08:15;;;;;;;12.50;3.78;;;;;;;;;;4981041;28;20482;-72
2023/05/17 01:10:52;;;;;;;10.07;3.20;;;;;;;;;;4979360;28;20033;-72
2023/05/17 01:13:22;;;;;;;12.55;3.50;;;;;;;;;;4980897;28;20212;-72
2023/05/17 01:16:08;;;;;;;14.32;3.72;;;;;;;;;;4975298;28;20145;-73
2023/05/17 01:18:44;;;;;;;13.00;3.80;;;;;;;;;;4984053;28;20036;-72
2023/05/17 01:21:29;;;;;;;11.27;3.53;;;;;;;;;;4982629;28;20571;-72
2023/05/17 01:24:04;;;;;;;12.73;3.65;;;;;;;;;;4978656;28;20528;-72
2023/05/17 01:26:38;;;;;;;11.90;3.53;;;;;;;;;;4976430;28;20136;-73
2023/05/17 01:29:05;;;;;;;10.20;3.30;;;;;;;;;;4976082;28;20248;-73
2023/05/17 01:31:31;;;;;;;13.05;3.30;;;;;;;;;;4980404;28;20033;-73
2023/05/17 01:33:58;;;;;;;12.88;3.47;;;;;;;;;;4978882;28;20073;-72
2023/05/17 01:36:25;;;;;;;12.00;3.53;;;;;;;;;;4979343;28;20598;-72
2023/05/17 01:38:51;;;;;;;12.05;3.25;;;;;;;;;;4976885;28;20027;-72
2023/05/17 01:41:26;;;;;;;9.50;3.28;;;;;;;;;;4976642;28;20675;-72
2023/05/17 01:44:01;;;;;;;11.13;3.85;;;;;;;;;;4973355;28;20441;-72
2023/05/17 01:46:32;;;;;;;9.77;3.03;;;;;;;;;;4974468;28;20159;-72
2023/05/17 01:49:11;;;;;;;10.48;3.30;;;;;;;;;;4974823;28;20022;-72
2023/05/17 01:51:42;;;;;;;9.77;3.25;;;;;;;;;;4975669;28;20044;-72
2023/05/17 01:54:10;;;;;;;11.93;3.22;;;;;;;;;;4978666;28;20033;-73
2023/05/17 01:56:41;;;;;;;11.55;3.58;;;;;;;;;;4984112;28;20026;-73
2023/05/17 01:59:07;;;;;;;11.82;3.67;;;;;;;;;;4973732;28;20488;-72
2023/05/17 02:01:34;;;;;;;10.70;3.53;;;;;;;;;;4974406;28;20419;-72
2023/05/17 02:04:00;;;;;;;10.25;3.20;;;;;;;;;;4974473;28;20540;-72
2023/05/17 02:06:26;;;;;;;;;;;;;;;;;;4978527;28;20442;-72
2023/05/17 02:08:52;;;;;;;14.18;3.72;;;;;;;;;;4975543;28;20023;-72
2023/05/17 02:11:19;;;;;;;12.10;3.70;;;;;;;;;;4978799;28;20572;-72
2023/05/17 02:13:45;;;;;;;;;;;;;;;;;;4973065;28;20030;-72
2023/05/17 02:16:11;;;;;;;11.48;3.47;;;;;;;;;;4978170;28;19921;-72
2023/05/17 02:18:39;;;;;;;;;;;;;;;;;;4979713;28;20116;-73
2023/05/17 02:21:05;;;;;;;13.18;3.65;;;;;;;;;;4976864;28;20662;-73
2023/05/17 02:23:31;;;;;;;16.02;4.10;;;;;;;;;;4979974;28;20660;-73
2023/05/17 02:25:57;;;;;;;;;;;;;;;;;;4977847;28;20046;-73
2023/05/17 02:28:23;;;;;;;12.52;3.97;;;;;;;;;;4981500;28;19959;-73
2023/05/17 02:30:49;;;;;;;;;;;;;;;;;;4975323;28;20069;-73
2023/05/17 02:33:15;;;;;;;12.75;3.90;;;;;;;;;;4977929;28;20043;-73
2023/05/17 02:35:41;;;;;;;11.80;3.60;;;;;;;;;;4973744;28;20585;-73
2023/05/17 02:38:07;;;;;;;;;;;;;;;;;;4976899;28;20534;-73
2023/05/17 02:40:33;;;;;;;11.75;3.83;;;;;;;;;;4977252;28;19914;-73
2023/05/17 02:43:00;;;;;;;;;;;;;;;;;;4973785;28;20026;-72
2023/05/17 02:45:26;;;;;;;15.77;3.90;;;;;;;;;;4979473;28;19920;-72
2023/05/17 02:47:52;;;;;;;15.90;4.30;;;;;;;;;;4974251;28;20045;-72
2023/05/17 02:50:18;;;;;;;;;;;;;;;;;;4977650;28;20030;-72
2023/05/17 02:52:44;;;;;;;16.05;4.43;;;;;;;;;;4977336;28;19940;-75
2023/05/17 02:55:10;;;;;;;;;;;;;;;;;;4979325;28;20095;-72
2023/05/17 02:57:36;;;;;;;12.73;3.78;;;;;;;;;;4975453;28;20020;-72
2023/05/17 03:00:02;;;;;;;;;;;;;;;;;;4973305;28;20367;-72
2023/05/17 03:02:29;;;;;;;13.55;3.58;;;;;;;;;;4976733;28;20221;-72
2023/05/17 03:04:55;;;;;;;;;;;;;;;;;;4974486;28;20456;-72
2023/05/17 03:07:21;;;;;;;16.20;3.95;;;;;;;;;;4979537;28;19953;-72
2023/05/17 03:09:47;;;;;;;;;;;;;;;;;;4974088;28;20489;-72
2023/05/17 03:12:13;;;;;;;18.20;4.90;;;;;;;;;;4976695;28;19953;-73
2023/05/17 03:14:39;;;;;;;;;;;;;;;;;;4974584;28;20037;-74
2023/05/17 03:17:05;;;;;;;12.63;3.97;;;;;;;;;;4975490;28;19972;-71
2023/05/17 03:19:31;;;;;;;;;;;;;;;;;;4975552;28;20051;-72
2023/05/17 03:21:57;;;;;;;13.27;4.05;;;;;;;;;;4973121;28;20368;-72
2023/05/17 03:24:23;;;;;;;;;;;;;;;;;;4979850;28;20042;-71
2023/05/17 03:26:49;;;;;;;13.85;3.90;;;;;;;;;;4975645;28;19913;-72
2023/05/17 03:29:15;;;;;;;;;;;;;;;;;;4988177;28;20060;-72
2023/05/17 03:31:41;;;;;;;14.30;4.30;;;;;;;;;;4976430;28;19914;-72
2023/05/17 03:34:07;;;;;;;;;;;;;;;;;;4972573;28;20096;-74
2023/05/17 03:36:38;;;;;;;12.93;4.05;;;;;;;;;;4979501;28;19967;-72
2023/05/17 03:39:04;;;;;;;14.30;4.15;;;;;;;;;;4977164;28;22372;-72
2023/05/17 03:41:31;;;;;;;16.13;4.40;;;;;;;;;;4979916;28;20068;-72
2023/05/17 03:43:57;;;;;;;14.90;4.28;;;;;;;;;;4974175;28;20041;-71
2023/05/17 03:46:23;;;;;;;14.18;3.88;;;;;;;;;;4980275;28;20109;-74
2023/05/17 03:48:49;;;;;;;;;;;;;;;;;;4978334;28;20121;-71
2023/05/17 03:51:15;;;;;;;11.90;3.60;;;;;;;;;;4977089;28;19924;-74
2023/05/17 03:53:42;;;;;;;10.07;3.55;;;;;;;;;;4977056;28;20305;-71
2023/05/17 03:56:11;;;;;;;12.82;4.05;;;;;;;;;;4977106;28;20058;-72
2023/05/17 03:58:38;;;;;;;13.45;4.25;;;;;;;;;;4981551;28;20076;-72
2023/05/17 04:01:04;;;;;;;;;;;;;;;;;;4975746;28;20033;-71
2023/05/17 04:03:30;;;;;;;15.98;4.18;;;;;;;;;;4981671;28;19913;-72
2023/05/17 04:06:06;;;;;;;13.65;4.45;;;;;;;;;;4990993;28;20034;-74
2023/05/17 04:08:33;;;;;;;15.95;4.63;;;;;;;;;;4979663;28;20120;-72
2023/05/17 04:11:08;;;;;;;15.18;4.78;;;;;;;;;;4975193;28;20041;-71
2023/05/17 04:13:36;;;;;;;10.30;3.63;;;;;;;;;;4976217;28;20022;-74
2023/05/17 04:16:02;;;;;;;16.33;4.50;;;;;;;;;;4973135;28;20037;-74
2023/05/17 04:18:28;;;;;;;15.80;4.68;;;;;;;;;;4977197;28;20037;-72
2023/05/17 04:20:54;;;;;;;;;;;;;;;;;;4974222;28;20408;-72
2023/05/17 04:23:21;;;;;;;16.27;4.63;;;;;;;;;;4981661;28;19913;-72
2023/05/17 04:25:47;;;;;;;12.40;3.78;;;;;;;;;;4977773;28;20806;-72
2023/05/17 04:28:13;;;;;;;;;;;;;;;;;;4979869;28;20030;-72
2023/05/17 04:30:43;;;;;;;14.82;4.30;;;;;;;;;;4978985;28;19917;-73
2023/05/17 04:33:09;;;;;;;15.15;4.82;;;;;;;;;;4973650;28;20030;-72
2023/05/17 04:35:36;;;;;;;12.80;3.80;;;;;;;;;;4979220;28;20076;-72
2023/05/17 04:38:02;;;;;;;17.98;4.80;;;;;;;;;;4975937;28;20033;-73
2023/05/17 04:40:28;;;;;;;;;;;;;;;;;;4981851;28;20042;-71
2023/05/17 04:42:54;;;;;;;13.18;4.00;;;;;;;;;;4977730;28;19917;-73
2023/05/17 04:45:21;;;;;;;;;;;;;;;;;;4980259;28;20030;-73
2023/05/17 04:47:49;;;;;;;14.00;4.50;;;;;;;;;;4975519;28;20295;-73
2023/05/17 04:50:15;;;;;;;14.13;4.80;;;;;;;;;;4975942;28;20108;-73
2023/05/17 04:52:41;;;;;;;;;;;;;;;;;;4980167;28;20042;-73
2023/05/17 04:55:07;;;;;;;15.23;4.60;;;;;;;;;;4975942;28;19999;-72
2023/05/17 04:57:33;;;;;;;15.23;4.95;;;;;;;;;;4981979;28;20808;-72
2023/05/17 04:59:59;;;;;;;;;;;;;;;;;;4972634;28;20036;-72
2023/05/17 05:02:25;;;;;;;17.98;5.07;;;;;;;;;;4978799;28;19913;-72
2023/05/17 05:04:51;;;;;;;15.23;4.28;;;;;;;;;;4977672;28;20386;-73
2023/05/17 05:07:18;;;;;;;15.07;4.40;;;;;;;;;;4975547;28;20105;-72
2023/05/17 05:09:44;;;;;;;;;;;;;;;;;;4977317;28;20480;-72
2023/05/17 05:12:10;;;;;;;17.65;4.75;;;;;;;;;;4979713;28;20227;-72
2023/05/17 05:14:36;;;;;;;20.42;4.95;;;;;;;;;;4976398;28;20121;-72
2023/05/17 05:17:02;;;;;;;;;;;;;;;;;;4974810;28;20387;-72
2023/05/17 05:19:28;;;;;;;14.20;4.47;;;;;;;;;;4977686;28;19913;-72
2023/05/17 05:21:54;;;;;;;;;;;;;;;;;;4976580;28;20038;-72
2023/05/17 05:24:20;;;;;;;14.75;4.68;;;;;;;;;;4975618;28;20374;-72
2023/05/17 05:26:46;;;;;;;;;;;;;;;;;;4974950;28;20042;-74
2023/05/17 05:29:13;;;;;;;17.25;4.50;;;;;;;;;;4978488;28;20312;-74
2023/05/17 05:31:39;;;;;;;;;;;;;;;;;;4974220;28;20614;-71
2023/05/17 05:34:05;;;;;;;17.17;4.90;;;;;;;;;;4978165;28;19921;-72
2023/05/17 05:36:31;;;;;;;;;;;;;;;;;;4979720;28;20037;-72
2023/05/17 05:38:57;;;;;;;14.93;4.53;;;;;;;;;;4977068;28;19925;-72
2023/05/17 05:41:23;;;;;;;;;;;;;;;;;;4977286;28;20038;-72
2023/05/17 05:43:49;;;;;;;20.40;4.90;;;;;;;;;;4976366;28;20317;-74
2023/05/17 05:46:15;;;;;;;15.77;4.82;;;;;;;;;;4979865;28;20027;-74
2023/05/17 05:48:42;;;;;;;;;;;;;;;;;;4981537;28;20099;-72
2023/05/17 05:51:08;;;;;;;14.38;4.63;;;;;;;;;;4974637;28;20441;-72
2023/05/17 05:53:34;;;;;;;16.15;4.78;;;;;;;;;;4980682;28;20091;-72
2023/05/17 05:56:00;;;;;;;;;;;;;;;;;;4977993;28;20033;-73
2023/05/17 05:58:26;;;;;;;18.67;4.90;;;;;;;;;;4980016;28;20512;-73
2023/05/17 06:00:52;;;;;;;;;;;;;;;;;;4973357;28;20021;-73
2023/05/17 06:03:18;;;;;;;17.33;6.50;;;;;;;;;;4976408;28;20444;-73
2023/05/17 06:05:44;;;;;;;;;;;;;;;;;;4974878;28;20068;-73
2023/05/17 06:08:10;;;;;;;17.13;6.45;;;;;;;;;;4980779;28;20386;-72
2023/05/17 06:10:36;;;;;;;;;;;;;;;;;;4979687;28;20059;-72
2023/05/17 06:13:02;;;;;;;20.40;7.05;;;;;;;;;;4976467;28;20436;-72
2023/05/17 06:15:28;;;;;;;;;;;;;;;;;;4979218;28;20183;-72
2023/05/17 06:17:54;;;;;;;13.93;5.10;;;;;;;;;;4976047;28;20381;-72
2023/05/17 06:20:20;;;;;;;;;;;;;;;;;;4975469;28;20394;-72
2023/05/17 06:22:47;;;;;;;14.13;4.55;;;;;;;;;;4974776;28;19921;-72
2023/05/17 06:25:13;;;;;;;14.68;4.28;;;;;;;;;;4977151;28;20033;-72
2023/05/17 06:27:39;;;;;;;16.73;5.43;;;;;;;;;;4978475;28;20492;-72
2023/05/17 06:30:06;;;;;;;17.83;5.65;;;;;;;;;;4976338;28;20045;-72
2023/05/17 06:32:32;;;;;;;16.65;4.88;;;;;;;;;;4978488;28;20033;-72
2023/05/17 06:34:58;;;;;;;17.00;5.05;;;;;;;;;;4970687;28;20397;-72
2023/05/17 06:37:24;;;;;;;17.48;5.15;;;;;;;;;;4972953;28;20030;-72
2023/05/17 06:39:50;;;;;;;;;;;;;;;;;;4970899;28;20121;-72
2023/05/17 06:42:16;;;;;;;18.52;5.50;;;;;;;;;;4974122;28;19928;-72
2023/05/17 06:44:43;;;;;;;18.35;5.28;;;;;;;;;;4975505;28;20127;-72
2023/05/17 06:47:09;;;;;;;18.30;4.72;;;;;;;;;;4974227;28;20022;-72
2023/05/17 06:49:37;;;;;;;17.83;5.43;;;;;;;;;;4976913;28;20061;-72
2023/05/17 06:52:04;;;;;;;17.80;5.07;;;;;;;;;;4974478;28;20061;-72
2023/05/17 06:54:31;;;;;;;20.38;5.15;;;;;;;;;;4978244;28;20030;-72
2023/05/17 06:57:00;;;;;;;18.33;5.20;;;;;;;;;;4975650;28;20092;-74
2023/05/17 06:59:27;;;;;;;20.00;5.47;;;;;;;;;;4981760;28;20477;-73
2023/05/17 07:01:53;;;;;;;20.00;5.22;;;;;;;;;;4974870;28;20049;-73
2023/05/17 07:04:20;;;;;;;20.35;4.93;;;;;;;;;;4975281;28;20038;-73
2023/05/17 07:06:46;;;;;;;16.70;4.47;;;;;;;;;;4973037;28;20441;-73
2023/05/17 07:09:12;;;;;;;19.65;4.90;;;;;;;;;;4980209;28;20117;-73
2023/05/17 07:11:38;;;;;;;19.77;5.03;;;;;;;;;;4977587;28;20152;-73
2023/05/17 07:14:05;;;;;;;19.90;5.38;;;;;;;;;;4975943;28;21089;-73
2023/05/17 07:16:31;;;;;;;18.02;5.43;;;;;;;;;;4978895;28;20603;-73
2023/05/17 07:18:57;;;;;;;19.13;5.00;;;;;;;;;;4976881;28;20125;-73
2023/05/17 07:21:23;;;;;;;20.05;5.65;;;;;;;;;;4981604;28;20038;-73
2023/05/17 07:23:50;;;;;;;19.00;5.90;;;;;;;;;;4974468;28;20041;-72
2023/05/17 07:26:18;;;;;;;18.17;5.40;;;;;;;;;;4979161;28;20025;-74
2023/05/17 07:28:45;;;;;;;20.05;6.10;;;;;;;;;;4981198;28;20386;-72
2023/05/17 07:31:11;;;;;;;24.85;6.13;;;;;;;;;;4978027;28;20100;-74
2023/05/17 07:33:37;;;;;;;21.30;5.63;;;;;;;;;;4980599;28;20137;-74
2023/05/17 07:36:05;;;;;;;14.98;5.03;;;;;;;;;;4976769;28;20148;-74
2023/05/17 07:38:31;;;;;;;16.02;4.90;;;;;;;;;;4980739;28;20116;-74
2023/05/17 07:40:57;;;;;;;15.05;4.80;;;;;;;;;;4978917;28;20465;-72
2023/05/17 07:43:23;;;;;;;17.13;4.55;;;;;;;;;;4980685;28;20075;-74
2023/05/17 07:45:49;;;;;;;19.15;5.20;;;;;;;;;;4974497;28;20478;-72
2023/05/17 07:48:16;;;;;;;14.60;4.13;;;;;;;;;;4977295;28;20038;-73
2023/05/17 07:50:42;;;;;;;21.10;5.10;;;;;;;;;;4976433;28;20428;-72
2023/05/17 07:53:09;;;;;;;15.65;5.00;;;;;;;;;;4975870;28;20029;-72
2023/05/17 07:55:35;;;;;;;13.98;4.75;;;;;;;;;;4982519;28;20165;-72
2023/05/17 07:58:01;;;;;;;15.43;4.22;;;;;;;;;;4977903;28;20540;-72
2023/05/17 08:00:28;;;;;;;17.15;4.63;;;;;;;;;;4979892;28;20029;-73
2023/05/17 08:02:54;;;;;;;12.10;4.20;;;;;;;;;;4975847;28;20760;-74
2023/05/17 08:05:20;;;;;;;13.95;4.25;;;;;;;;;;4979638;28;20104;-74
2023/05/17 08:07:46;;;;;;;14.35;4.28;;;;;;;;;;4975801;28;20030;-74
2023/05/17 08:10:12;;;;;;;18.42;4.32;;;;;;;;;;4990166;28;20524;-72
2023/05/17 08:12:38;;;;;;;14.20;4.07;;;;;;;;;;4979380;28;20066;-72
2023/05/17 08:15:05;;;;;;;13.75;3.90;;;;;;;;;;4976551;28;20038;-73
2023/05/17 08:17:31;;;;;;;15.68;4.07;;;;;;;;;;4977405;28;20030;-73
2023/05/17 08:19:57;;;;;;;17.58;3.88;;;;;;;;;;4974607;28;20027;-73
2023/05/17 08:22:23;;;;;;;14.00;3.58;;;;;;;;;;4976134;28;20534;-73
2023/05/17 08:24:50;;;;;;;13.70;3.70;;;;;;;;;;4974444;28;20031;-73
2023/05/17 08:27:16;;;;;;;14.95;3.80;;;;;;;;;;4976851;28;20037;-73
2023/05/17 08:29:42;;;;;;;11.43;3.38;;;;;;;;;;4981170;28;20018;-72
2023/05/17 08:32:08;;;;;;;13.88;3.65;;;;;;;;;;4975168;28;20481;-73
2023/05/17 08:34:35;;;;;;;13.32;3.83;;;;;;;;;;4979088;28;20022;-73
2023/05/17 08:37:01;;;;;;;16.40;3.65;;;;;;;;;;4977862;28;20034;-73
2023/05/17 08:39:27;;;;;;;14.23;3.70;;;;;;;;;;4973781;28;20031;-73
2023/05/17 08:41:58;;;;;;;12.23;3.58;;;;;;;;;;4973546;28;20517;-73
2023/05/17 08:44:24;;;;;;;15.20;3.60;;;;;;;;;;4979414;28;20145;-73
2023/05/17 08:46:52;;;;;;;13.88;3.70;;;;;;;;;;4975564;28;20377;-73
2023/05/17 08:49:22;;;;;;;16.10;4.53;;;;;;;;;;4977547;28;20030;-73
2023/05/17 08:51:53;;;;;;;11.90;3.65;;;;;;;;;;4977270;28;20560;-73
2023/05/17 08:54:19;;;;;;;12.63;3.83;;;;;;;;;;4980902;28;20319;-73
2023/05/17 08:56:50;;;;;;;13.48;3.72;;;;;;;;;;4974926;28;20048;-73
2023/05/17 08:59:18;;;;;;;14.77;3.60;;;;;;;;;;4978032;28;20493;-73
2023/05/17 09:01:46;;;;;;;12.60;3.67;;;;;;;;;;4976544;28;20058;-73
2023/05/17 09:04:12;;;;;;;13.63;3.30;;;;;;;;;;4979444;28;20122;-73
2023/05/17 09:06:38;;;;;;;17.88;3.90;;;;;;;;;;4976001;28;20092;-73
2023/05/17 09:09:06;;;;;;;12.07;3.45;;;;;;;;;;4973122;28;20811;-73
2023/05/17 09:11:32;;;;;;;15.32;3.85;;;;;;;;;;4980470;28;20465;-73
2023/05/17 09:14:00;;;;;;;13.32;3.42;;;;;;;;;;4978711;28;20037;-72
2023/05/17 09:16:29;;;;;;;13.07;3.33;;;;;;;;;;4978868;28;20038;-73
2023/05/17 09:18:56;;;;;;;13.73;3.50;;;;;;;;;;4975477;28;20022;-73
2023/05/17 09:21:23;;;;;;;13.50;3.65;;;;;;;;;;4978799;28;20519;-73
2023/05/17 09:23:53;;;;;;;14.80;3.58;;;;;;;;;;4976989;28;20105;-72
2023/05/17 09:26:20;;;;;;;13.50;3.50;;;;;;;;;;4978473;28;20037;-73
2023/05/17 09:28:47;;;;;;;15.00;3.70;;;;;;;;;;4974300;28;20049;-73
2023/05/17 09:31:15;;;;;;;14.23;3.65;;;;;;;;;;4976274;28;20040;-73
2023/05/17 09:33:46;;;;;;;13.50;3.40;;;;;;;;;;4979139;28;20148;-73
2023/05/17 09:36:19;;;;;;;13.15;3.10;;;;;;;;;;4978493;28;20058;-73
2023/05/17 09:38:55;;;;;;;12.52;3.03;;;;;;;;;;4976773;28;20034;-73
2023/05/17 09:41:21;;;;;;;15.75;3.20;;;;;;;;;;4979046;28;20050;-73
2023/05/17 09:43:48;;;;;;;13.07;3.50;;;;;;;;;;4977718;28;20038;-74
2023/05/17 09:46:14;;;;;;;11.68;3.13;;;;;;;;;;4977923;28;20029;-74
2023/05/17 09:48:43;;;;;;;11.25;3.30;;;;;;;;;;4977584;28;20222;-74
2023/05/17 09:51:09;;;;;;;12.38;3.17;;;;;;;;;;4974748;28;20041;-74
2023/05/17 09:53:38;;;;;;;12.93;3.20;;;;;;;;;;4976490;28;20030;-74
2023/05/17 09:56:05;;;;;;;14.27;3.53;;;;;;;;;;4977810;28;22238;-74
2023/05/17 09:58:32;;;;;;;12.35;3.20;;;;;;;;;;4978194;28;20029;-74
2023/05/17 10:00:59;;;;;;;13.48;3.00;;;;;;;;;;4973830;28;20038;-74
2023/05/17 10:03:30;;;;;;;11.13;3.10;;;;;;;;;;4975232;28;20352;-74
2023/05/17 10:05:57;;;;;;;13.32;2.90;;;;;;;;;;4977530;28;20428;-74
2023/05/17 10:08:26;;;;;;;11.32;3.15;;;;;;;;;;4980319;28;20712;-74
2023/05/17 10:10:55;;;;;;;15.60;3.70;;;;;;;;;;4975775;28;20042;-74
2023/05/17 10:13:23;;;;;;;12.68;3.13;;;;;;;;;;4978157;28;20178;-74
2023/05/17 10:15:50;;;;;;;12.25;2.95;;;;;;;;;;4973828;28;20662;-73
2023/05/17 10:18:17;;;;;;;10.23;2.65;;;;;;;;;;4975775;28;20960;-73
2023/05/17 10:20:43;;;;;;;11.63;2.92;;;;;;;;;;4976819;28;20453;-73
2023/05/17 10:23:10;;;;;;;13.05;3.33;;;;;;;;;;4974737;28;20553;-73
2023/05/17 10:25:37;;;;;;;13.35;3.30;;;;;;;;;;4979574;28;20014;-72
2023/05/17 10:28:06;;;;;;;13.48;3.35;;;;;;;;;;4972513;28;20038;-73
2023/05/17 10:30:33;;;;;;;15.32;2.92;;;;;;;;;;4976448;28;20026;-73
2023/05/17 10:32:59;;;;;;;14.90;3.42;;;;;;;;;;4988639;28;20080;-73
2023/05/17 10:35:27;;;;;;;12.90;3.38;;;;;;;;;;4976837;28;20248;-73
2023/05/17 10:37:53;;;;;;;10.27;2.88;;;;;;;;;;4974972;28;20034;-72
2023/05/17 10:40:20;;;;;;;10.90;2.78;;;;;;;;;;4974071;28;20081;-74
2023/05/17 10:42:51;;;;;;;11.20;2.95;;;;;;;;;;4972628;28;20056;-72
2023/05/17 10:45:19;;;;;;;11.50;3.13;;;;;;;;;;4978469;28;20616;-73
2023/05/17 10:47:46;;;;;;;11.23;2.70;;;;;;;;;;4976263;28;20026;-73
2023/05/17 10:50:13;;;;;;;12.65;2.80;;;;;;;;;;4982045;28;20458;-73
2023/05/17 10:52:46;;;;;;;12.20;3.08;;;;;;;;;;4976324;28;20058;-73
2023/05/17 10:55:12;;;;;;;22.33;3.17;;;;;;;;;;4983707;28;20692;-74
2023/05/17 10:57:38;;;;;;;13.70;2.92;;;;;;;;;;4978042;28;20347;-74
2023/05/17 11:00:06;;;;;;;10.20;2.85;;;;;;;;;;4977120;28;22118;-74
2023/05/17 11:02:32;;;;;;;17.83;3.72;;;;;;;;;;4981997;28;20029;-73
2023/05/17 11:04:59;;;;;;;14.55;3.67;;;;;;;;;;4980308;28;20604;-73
2023/05/17 11:07:28;;;;;;;11.65;2.92;;;;;;;;;;4976009;28;20033;-74
2023/05/17 11:09:54;;;;;;;11.32;2.78;;;;;;;;;;4977116;28;20597;-74
2023/05/17 11:12:35;;;;;;;11.52;2.88;;;;;;;;;;4979038;28;20054;-74
2023/05/17 11:15:05;;;;;;;10.40;2.72;;;;;;;;;;4975883;28;20027;-74
2023/05/17 11:17:36;;;;;;;12.13;2.60;;;;;;;;;;4981883;28;20480;-73
2023/05/17 11:20:08;;;;;;;13.00;2.80;;;;;;;;;;4976521;28;20418;-74
2023/05/17 11:22:41;;;;;;;13.70;2.92;;;;;;;;;;4979321;28;20076;-74
2023/05/17 11:25:16;;;;;;;12.25;3.10;;;;;;;;;;4975046;28;20462;-75
2023/05/17 11:27:51;;;;;;;11.63;2.60;;;;;;;;;;4980410;28;20101;-75
2023/05/17 11:30:28;;;;;;;11.48;2.72;;;;;;;;;;4976119;28;20061;-75
2023/05/17 11:33:01;;;;;;;9.55;2.75;;;;;;;;;;4992204;28;20790;-75
2023/05/17 11:35:29;;;;;;;11.75;3.35;;;;;;;;;;4980133;28;20877;-75
2023/05/17 11:38:29;;;;;;;12.68;3.05;;;;;;;;;;4971185;28;20034;-73
2023/05/17 11:40:56;;;;;;;11.77;2.95;;;;;;;;;;4900635;28;20077;-73
2023/05/17 11:43:29;;;;;;;13.85;2.85;;;;;;;;;;4917310;28;20405;-73
2023/05/17 11:46:03;;;;;;;12.77;3.00;;;;;;;;;;4917313;28;20122;-73
2023/05/17 11:48:30;;;;;;;14.20;2.95;;;;;;;;;;4917614;28;20036;-73
2023/05/17 11:50:56;;;;;;;9.18;2.75;;;;;;;;;;4918260;28;20140;-74
2023/05/17 11:53:24;;;;;;;10.98;2.85;;;;;;;;;;4916646;28;20039;-73
2023/05/17 11:55:51;;;;;;;10.43;2.80;;;;;;;;;;4902244;28;20035;-73
2023/05/17 11:58:19;;;;;;;10.68;2.72;;;;;;;;;;4916622;28;20370;-73
2023/05/17 12:00:51;;;;;;;13.27;3.30;;;;;;;;;;4913142;28;20043;-73
2023/05/17 12:03:21;;;;;;;12.73;2.90;;;;;;;;;;4918977;28;20034;-73
2023/05/17 12:05:49;;;;;;;12.68;3.00;;;;;;;;;;4912732;28;20038;-73
2023/05/17 12:08:18;;;;;;;13.48;3.10;;;;;;;;;;4917280;28;20114;-74
2023/05/17 12:10:55;;;;;;;11.60;3.00;;;;;;;;;;4915016;28;20438;-73
2023/05/17 12:13:22;;;;;;;12.73;2.83;;;;;;;;;;4919458;28;20031;-73
2023/05/17 12:15:52;;;;;;;13.75;3.28;;;;;;;;;;4924984;28;20046;-73
2023/05/17 12:18:19;;;;;;;11.35;3.35;;;;;;;;;;4977963;28;20030;-69
2023/05/17 12:20:55;;;;;;;11.48;4.05;;;;;;;;;;4976420;28;20284;-69
2023/05/17 12:23:35;;;;;;;16.02;4.60;;;;;;;;;;4979338;28;20178;-69
2023/05/17 12:26:04;;;;;;;11.02;2.78;;;;;;;;;;4970516;28;20030;-69
2023/05/17 12:28:31;;;;;;;12.27;3.15;;;;;;;;;;4963105;28;20893;-69
2023/05/17 12:31:01;;;;;;;11.70;3.13;;;;;;;;;;4974239;28;20042;-69
2023/05/17 12:33:27;;;;;;;12.10;3.50;;;;;;;;;;4980298;28;20029;-69
2023/05/17 12:35:53;;;;;;;12.73;3.50;;;;;;;;;;4974928;28;20666;-69
2023/05/17 12:38:20;;;;;;;11.50;3.20;;;;;;;;;;4975709;28;20532;-69
2023/05/17 12:40:46;;;;;;;14.63;5.25;;;;;;;;;;4974335;28;20069;-71
2023/05/17 12:43:12;;;;;;;13.32;4.45;;;;;;;;;;4977608;28;20536;-71
2023/05/17 12:45:41;;;;;;;12.15;4.13;;;;;;;;;;4976430;28;20048;-71
2023/05/17 12:48:07;;;;;;;11.75;4.25;;;;;;;;;;4974451;28;20530;-71
2023/05/17 12:50:33;;;;;;;11.10;3.42;;;;;;;;;;4973792;28;20042;-71
2023/05/17 12:52:59;;;;;;;13.88;3.70;;;;;;;;;;4975829;28;20030;-71
2023/05/17 12:55:25;;;;;;;13.20;3.13;;;;;;;;;;4976932;28;20123;-71
2023/05/17 12:57:52;;;;;;;10.35;2.97;;;;;;;;;;4976123;28;20026;-71
2023/05/17 13:00:19;;;;;;;12.35;3.22;;;;;;;;;;4975290;28;20041;-71
2023/05/17 13:02:45;;;;;;;8.98;3.00;;;;;;;;;;4974306;28;20467;-70
2023/05/17 13:05:22;;;;;;;11.80;3.60;;;;;;;;;;4975661;28;20040;-71
2023/05/17 13:07:48;;;;;;;14.48;3.85;;;;;;;;;;4971070;28;20033;-71
2023/05/17 13:10:28;;;;;;;11.68;3.15;;;;;;;;;;4975724;28;20202;-74
2023/05/17 13:12:58;;;;;;;10.93;3.05;;;;;;;;;;4971203;28;20068;-73
2023/05/17 13:15:40;;;;;;;13.57;3.75;;;;;;;;;;4973337;28;20448;-73
2023/05/17 13:18:15;;;;;;;11.32;3.47;;;;;;;;;;4969559;28;20697;-72
2023/05/17 13:20:41;;;;;;;13.65;3.90;;;;;;;;;;4975145;28;20405;-73
2023/05/17 13:23:08;;;;;;;13.10;3.70;;;;;;;;;;4973413;28;20493;-72
2023/05/17 13:25:35;;;;;;;12.65;3.47;;;;;;;;;;4977265;28;20535;-72
2023/05/17 13:28:01;;;;;;;12.98;4.10;;;;;;;;;;4972147;28;20033;-71
2023/05/17 13:30:28;;;;;;;12.30;3.50;;;;;;;;;;4976773;28;20145;-73
2023/05/17 13:32:55;;;;;;;10.90;3.10;;;;;;;;;;4975773;28;20473;-72
2023/05/17 13:35:21;;;;;;;12.93;3.58;;;;;;;;;;4974785;28;20041;-72
2023/05/17 13:37:47;;;;;;;14.95;3.50;;;;;;;;;;4972482;28;20384;-72
2023/05/17 13:40:14;;;;;;;13.55;3.20;;;;;;;;;;4979533;28;20026;-72
2023/05/17 13:42:40;;;;;;;10.00;2.90;;;;;;;;;;4975744;28;20103;-72
2023/05/17 13:45:08;;;;;;;13.15;3.45;;;;;;;;;;4971714;28;20030;-72
2023/05/17 13:47:34;;;;;;;13.38;3.75;;;;;;;;;;4978739;28;20384;-73
2023/05/17 13:50:02;;;;;;;15.35;3.08;;;;;;;;;;4974413;28;20621;-73
2023/05/17 13:52:28;;;;;;;14.13;3.35;;;;;;;;;;4976822;28;20038;-73
2023/05/17 13:54:55;;;;;;;13.30;3.40;;;;;;;;;;4971293;28;20030;-71
2023/05/17 13:57:21;;;;;;;11.07;3.40;;;;;;;;;;4971671;28;20105;-71
2023/05/17 13:59:47;;;;;;;13.43;3.17;;;;;;;;;;4970077;28;20402;-70
2023/05/17 14:02:14;;;;;;;11.95;3.22;;;;;;;;;;4975060;28;20036;-71
2023/05/17 14:04:40;;;;;;;14.25;3.33;;;;;;;;;;4974268;28;20149;-71
2023/05/17 14:07:06;;;;;;;12.65;3.22;;;;;;;;;;4972889;28;20323;-68
2023/05/17 14:09:35;;;;;;;11.65;3.03;;;;;;;;;;4974488;28;20053;-70
2023/05/17 14:12:02;;;;;;;14.13;2.97;;;;;;;;;;4973746;28;20034;-70
2023/05/17 14:14:28;;;;;;;11.20;3.00;;;;;;;;;;4976561;28;20073;-69
2023/05/17 14:16:54;;;;;;;12.85;3.10;;;;;;;;;;4973084;28;20373;-70
2023/05/17 14:19:21;;;;;;;12.75;3.33;;;;;;;;;;4975321;28;20030;-70
2023/05/17 14:21:47;;;;;;;11.82;3.33;;;;;;;;;;4973261;28;20059;-68
2023/05/17 14:24:13;;;;;;;14.95;3.40;;;;;;;;;;4975751;28;20037;-68
2023/05/17 14:26:39;;;;;;;11.93;3.05;;;;;;;;;;4973993;28;20038;-68
2023/05/17 14:29:05;;;;;;;14.75;3.40;;;;;;;;;;4972956;28;20046;-68
2023/05/17 14:31:31;;;;;;;12.98;3.05;;;;;;;;;;4975680;28;20030;-68
2023/05/17 14:34:00;;;;;;;13.88;3.40;;;;;;;;;;4970939;28;20436;-68
2023/05/17 14:36:26;;;;;;;11.45;4.32;;;;;;;;;;4973525;28;20108;-68
2023/05/17 14:38:52;;;;;;;13.45;3.20;;;;;;;;;;4974222;28;20065;-68
2023/05/17 14:41:18;;;;;;;15.43;3.20;;;;;;;;;;4972729;28;20049;-69
2023/05/17 14:43:45;;;;;;;13.40;3.65;;;;;;;;;;4974351;28;20486;-68
2023/05/17 14:46:11;;;;;;;10.75;3.10;;;;;;;;;;4973262;28;20034;-70